METAR stanice u blizini

 

LYBE - Beograd / Surčin, Srbija
Ažurirano: 22/04/2018 00:30
Vedro
Vedro
 Pravac vetra J
Vetar: J 9 km/h
Temperatura: 16°C
Tačka rose: 6°C
Vlažnost: 52%
Pritisak: 1018 hPa
Pregled: Vedro
Vidljivost: greater than 10 km
2018/04/21 22:30 LYBE 212230Z 17005KT CAVOK 16/06 Q1018 NOSIG
LYBT - Beograd / Batajnica, Srbija
Ažurirano: 22/04/2018 00:30
Vedro
Vedro
 Pravac vetra calm
Vetar: Tišina
Temperatura: 11°C
Tačka rose: 6°C
Vlažnost: 72%
Pritisak: 1018 hPa
Pregled: Vedro
Vidljivost: greater than 10 km
2018/04/21 22:30 LYBT 212230Z 00000KT CAVOK 11/06 Q1018 NOSIG
LYVR - Vršac, Srbija
Ažurirano: 22/04/2018 00:30
Vedro
Vedro
 Pravac vetra S
Vetar: S 6 km/h
Temperatura: 8°C
Tačka rose: 7°C
Vlažnost: 93%
Pritisak: 1018 hPa
Pregled: Vedro
Vidljivost: greater than 10 km
2018/04/21 22:30 LYVR 212230Z 01003KT CAVOK 08/07 Q1018 NOSIG
 
LYKV - Lađevci, Srbija
Ažurirano: 22/04/2018 00:30
Vedro
Vedro
 Pravac vetra I
Vetar: I 6 km/h
Temperatura: 9°C
Tačka rose: 6°C
Vlažnost: 82%
Pritisak: 1019 hPa
Pregled: Vedro
Vidljivost: greater than 10 km
2018/04/21 22:30 LYKV 212230Z 09003KT CAVOK 09/06 Q1019 NOSIG
LYNI - Niš, Srbija
Ažurirano: 22/04/2018 00:30
Vedro
Vedro
 Pravac vetra varies
Vetar: varies 4 km/h
Temperatura: 10°C
Tačka rose: 6°C
Vlažnost: 76%
Pritisak: 1019 hPa
Pregled: Vedro
Vidljivost: greater than 10 km
2018/04/21 22:30 LYNI 212230Z VRB02KT CAVOK 10/06 Q1019 NOSIG
BKPR - Priština, Srbija
Ažurirano: 22/04/2018 01:00
Vedro
Vedro
 Pravac vetra varies
Vetar: varies 2 km/h
Temperatura: 8°C
Tačka rose: 2°C
Vlažnost: 66%
Pritisak: 1020 hPa
Pregled: Vedro
Vidljivost: greater than 10 km
2018/04/21 23:00 BKPR 212300Z VRB01KT CAVOK 08/02 Q1020 NOSIG
 
LHPP - Pecs / Pogany, Hungary
Ažurirano: 21/04/2018 18:45
NOT Current
Vedro
Vedro
 Pravac vetra JJI
Vetar: JJI 9 km/h
Temperatura: 21°C
Tačka rose: 7°C
Vlažnost: 40%
Pritisak: 1018 hPa
Pregled: Vedro
Vidljivost: greater than 10 km
2018/04/21 16:45 LHPP 211645Z 16005KT CAVOK 21/07 Q1018
LHUD - Szeged, Hungary
Ažurirano: 21/04/2018 23:45
Vedro
Vedro
 Pravac vetra JJI
Vetar: JJI 7 km/h
Temperatura: 12°C
Tačka rose: 8°C
Vlažnost: 77%
Pritisak: 1018 hPa
Pregled: Vedro
Vidljivost: greater than 10 km
2018/04/21 21:45 LHUD 212145Z 16004KT CAVOK 12/08 Q1018
LRTR - Timisoara, Romania
Ažurirano: 22/04/2018 00:30
Vedro
Vedro
 Pravac vetra IJI
Vetar: IJI 9 km/h
Temperatura: 10°C
Osećaj hladnoće: 9°C
Tačka rose: 8°C
Vlažnost: 88%
Pritisak: 1018 hPa
Pregled: Vedro
Vidljivost: greater than 10 km
2018/04/21 22:30 LRTR 212230Z 11005KT CAVOK 10/08 Q1018
 
LRCV - Craiova, Romania
Ažurirano: 22/04/2018 00:30
Vedro
Vedro
 Pravac vetra JJZ
Vetar: JJZ 13 km/h
Temperatura: 14°C
Tačka rose: 5°C
Vlažnost: 55%
Pritisak: 1016 hPa
Pregled: Vedro
Vidljivost: greater than 10 km
2018/04/21 22:30 LRCV 212230Z 21007KT CAVOK 14/05 Q1016
LBSF - Sofia, Bulgaria
Ažurirano: 22/04/2018 00:30
Vedro
Vedro
 Pravac vetra J
Vetar: J 9 km/h
Temperatura: 8°C
Osećaj hladnoće: 6°C
Tačka rose: 5°C
Vlažnost: 82%
Pritisak: 1019 hPa
Pregled: Vedro
Vidljivost: greater than 10 km
2018/04/21 22:30 LBSF 212230Z 19005KT 160V240 CAVOK 08/05 Q1019 NOSIG
LWSK - Skoplje, Makedonija
Ažurirano: 22/04/2018 00:30
Vedro
Vedro
 Pravac vetra IJI
Vetar: IJI 2 km/h
Temperatura: 8°C
Tačka rose: 5°C
Vlažnost: 82%
Pritisak: 1020 hPa
Pregled: Vedro
Vidljivost: greater than 10 km
2018/04/21 22:30 LWSK 212230Z 11001KT CAVOK 08/05 Q1020 NOSIG
 
LYPG - Podgorica, Crna Gora
Ažurirano: 22/04/2018 00:30
Vedro
Vedro
 Pravac vetra varies
Vetar: varies 2 km/h
Temperatura: 14°C
Tačka rose: 9°C
Vlažnost: 72%
Pritisak: 1020 hPa
Pregled: Vedro
Vidljivost: greater than 10 km
2018/04/21 22:30 LYPG 212230Z VRB01KT CAVOK 14/09 Q1020 NOSIG
LQSA - Sarajevo, Bosna i Hercegovina
Ažurirano: 22/04/2018 00:00
Vedro
Vedro
 Pravac vetra varies
Vetar: varies 2 km/h
Temperatura: 10°C
Tačka rose: 7°C
Vlažnost: 82%
Pritisak: 1019 hPa
Pregled: Vedro
Vidljivost: greater than 10 km
2018/04/21 22:00 LQSA 212200Z VRB01KT CAVOK 10/07 Q1019
LDOS - Osijek, Hrvatksa
Ažurirano: 22/04/2018 00:30
Vedro
Vedro
 Pravac vetra varies
Vetar: varies 4 km/h
Temperatura: 10°C
Tačka rose: 3°C
Vlažnost: 62%
Pritisak: 1017 hPa
Pregled: Vedro
Vidljivost: greater than 10 km
2018/04/21 22:30 LDOS 212230Z VRB02KT CAVOK 10/03 Q1017